createdAt,value
2023-04-13T00:00:00.135Z,98.7
2023-04-13T00:05:00.140Z,98.9
2023-04-13T00:10:00.210Z,98.9
2023-04-13T00:15:00.139Z,98.7
2023-04-13T00:20:00.147Z,98.3
2023-04-13T00:25:00.126Z,97.6
2023-04-13T00:30:00.159Z,97.4
2023-04-13T00:35:00.128Z,97
2023-04-13T00:40:00.162Z,96.7
2023-04-13T00:45:00.146Z,97.3
2023-04-13T00:50:00.130Z,97.4
2023-04-13T00:55:00.139Z,97.4
2023-04-13T01:00:00.204Z,97.4
2023-04-13T01:05:00.147Z,97.7
2023-04-13T01:10:00.154Z,97.7
2023-04-13T01:15:00.143Z,98.2
2023-04-13T01:20:00.123Z,98
2023-04-13T01:25:00.129Z,98.2
2023-04-13T01:30:00.189Z,98.1
2023-04-13T01:35:00.153Z,97.9
2023-04-13T01:40:00.162Z,98
2023-04-13T01:45:00.122Z,98
2023-04-13T01:50:00.155Z,98.1
2023-04-13T01:55:00.147Z,98.1
2023-04-13T02:00:00.169Z,98
2023-04-13T02:05:00.108Z,97.8
2023-04-13T02:10:00.182Z,97.8
2023-04-13T02:15:00.152Z,97.7
2023-04-13T02:20:00.148Z,97.7
2023-04-13T02:25:00.117Z,98.1
2023-04-13T02:30:00.177Z,98.5
2023-04-13T02:35:00.102Z,99.1
2023-04-13T02:40:00.192Z,98.8
2023-04-13T02:45:00.122Z,98.8
2023-04-13T02:50:00.140Z,98.6
2023-04-13T02:55:00.103Z,98.9
2023-04-13T03:00:00.126Z,98.9
2023-04-13T03:05:00.225Z,98.8
2023-04-13T03:10:00.138Z,98.6
2023-04-13T03:15:00.102Z,98.2
2023-04-13T03:20:00.159Z,98.4
2023-04-13T03:25:00.130Z,98.5
2023-04-13T03:30:00.161Z,98.7
2023-04-13T03:35:00.120Z,98.9
2023-04-13T03:40:00.132Z,98.9
2023-04-13T03:45:00.125Z,98.8
2023-04-13T03:50:00.168Z,98.5
2023-04-13T03:55:00.142Z,98.1
2023-04-13T04:00:00.202Z,97.9
2023-04-13T04:05:00.209Z,97.7
2023-04-13T04:10:00.156Z,97.5
2023-04-13T04:15:00.131Z,97.4
2023-04-13T04:20:00.109Z,97.1
2023-04-13T04:25:00.268Z,96.8
2023-04-13T04:30:00.192Z,96.6
2023-04-13T04:35:00.110Z,96.6
2023-04-13T04:40:00.201Z,96.7
2023-04-13T04:45:00.138Z,96.6
2023-04-13T04:50:00.132Z,96.4
2023-04-13T04:55:00.099Z,96
2023-04-13T05:00:00.162Z,96.1
2023-04-13T05:05:00.121Z,95.9
2023-04-13T05:10:00.149Z,94.8
2023-04-13T05:15:00.126Z,93.8
2023-04-13T05:20:00.103Z,93.4
2023-04-13T05:25:00.149Z,93.2
2023-04-13T05:30:00.236Z,93
2023-04-13T05:35:00.124Z,92.4
2023-04-13T05:40:00.108Z,92.3
2023-04-13T05:45:00.156Z,91.8
2023-04-13T05:50:00.143Z,91.3
2023-04-13T05:55:00.142Z,91.2
2023-04-13T06:00:00.199Z,90.5
2023-04-13T06:05:00.202Z,90.4
2023-04-13T06:10:00.131Z,90
2023-04-13T06:15:00.135Z,89.9
2023-04-13T06:20:00.146Z,88.9
2023-04-13T06:25:00.110Z,88.2
2023-04-13T06:30:00.232Z,88.2
2023-04-13T06:35:00.133Z,86.6
2023-04-13T06:40:00.114Z,85.3
2023-04-13T06:45:00.162Z,85.7
2023-04-13T06:50:00.149Z,84.7
2023-04-13T06:55:00.123Z,84
2023-04-13T07:00:00.113Z,85
2023-04-13T07:05:00.172Z,82.3
2023-04-13T07:10:00.580Z,81.7
2023-04-13T07:15:00.146Z,83.5
2023-04-13T07:20:00.156Z,80.5
2023-04-13T07:25:00.145Z,82
2023-04-13T07:30:00.196Z,80.5
2023-04-13T07:35:00.134Z,73.9
2023-04-13T07:40:00.104Z,75.9
2023-04-13T07:45:00.115Z,69.1
2023-04-13T07:50:00.221Z,72
2023-04-13T07:55:00.133Z,71.7
2023-04-13T08:00:00.154Z,69.8
2023-04-13T08:05:00.296Z,69.8
2023-04-13T08:10:00.224Z,70.1
2023-04-13T08:15:00.143Z,68.7
2023-04-13T08:20:00.130Z,53.9
2023-04-13T08:25:00.126Z,51.1
2023-04-13T08:30:00.344Z,49.9
2023-04-13T08:35:00.160Z,45.5
2023-04-13T08:40:00.141Z,48.4
2023-04-13T08:45:00.419Z,44.6
2023-04-13T08:50:00.204Z,42.6
2023-04-13T08:55:00.125Z,41.5
2023-04-13T09:00:00.114Z,40.7
2023-04-13T09:05:00.282Z,40.4
2023-04-13T09:10:00.143Z,40.6
2023-04-13T09:15:00.139Z,38.9
2023-04-13T09:20:00.182Z,38.1
2023-04-13T09:25:00.147Z,37.5
2023-04-13T09:30:00.346Z,38.9
2023-04-13T09:35:00.158Z,36.8
2023-04-13T09:40:00.127Z,38.5
2023-04-13T09:45:00.114Z,38.9
2023-04-13T09:50:00.181Z,38.7
2023-04-13T09:55:00.168Z,37.6
2023-04-13T10:00:00.217Z,36.7
2023-04-13T10:05:00.194Z,37.9
2023-04-13T10:10:00.153Z,37.3
2023-04-13T10:15:00.163Z,37.4
2023-04-13T10:20:00.148Z,37.8
2023-04-13T10:25:00.133Z,36.8
2023-04-13T10:30:00.153Z,37.9
2023-04-13T10:35:00.127Z,38.3
2023-04-13T10:40:00.175Z,39.3
2023-04-13T10:45:00.133Z,40.1
2023-04-13T10:50:00.160Z,40.5
2023-04-13T10:55:00.131Z,40.8
2023-04-13T11:00:00.169Z,40.1
2023-04-13T11:05:00.258Z,40.2
2023-04-13T11:10:03.671Z,40.2
2023-04-13T11:15:00.134Z,40.3
2023-04-13T11:20:00.160Z,41.5
2023-04-13T11:25:00.142Z,40.3
2023-04-13T11:30:00.147Z,40.7
2023-04-13T11:35:00.163Z,39.8
2023-04-13T11:40:00.167Z,40
2023-04-13T11:45:00.114Z,40.4
2023-04-13T11:50:00.198Z,39.9
2023-04-13T11:55:07.672Z,40.4
2023-04-13T12:00:00.146Z,38.5
2023-04-13T12:05:00.284Z,38.4
2023-04-13T12:10:05.216Z,37.7
2023-04-13T12:20:00.697Z,38.1
2023-04-13T12:25:01.934Z,38.9
2023-04-13T12:30:00.197Z,38.7
2023-04-13T12:35:00.144Z,38.6
2023-04-13T12:40:00.175Z,38.3
2023-04-13T12:45:00.105Z,38.1
2023-04-13T12:50:00.166Z,37.5
2023-04-13T12:55:00.235Z,38.6
2023-04-13T13:00:00.189Z,38.6
2023-04-13T13:05:00.208Z,38.4
2023-04-13T13:10:00.228Z,39
2023-04-13T13:15:00.158Z,39.3
2023-04-13T13:20:01.258Z,39.2
2023-04-13T13:25:00.151Z,39.3
2023-04-13T13:30:00.211Z,39
2023-04-13T13:35:00.117Z,39.2
2023-04-13T13:40:00.145Z,39.4
2023-04-13T13:45:00.187Z,39.4
2023-04-13T13:50:00.205Z,38.2
2023-04-13T13:55:00.134Z,39
2023-04-13T14:00:00.232Z,37.8
2023-04-13T14:05:00.132Z,40
2023-04-13T14:10:00.159Z,39.3
2023-04-13T14:15:00.130Z,39.5
2023-04-13T14:20:00.124Z,39
2023-04-13T14:25:00.117Z,38.3
2023-04-13T14:30:00.153Z,38.7
2023-04-13T14:35:00.272Z,37.9
2023-04-13T14:40:00.172Z,39.2
2023-04-13T14:45:00.134Z,39.2
2023-04-13T14:50:00.168Z,38.6
2023-04-13T14:55:00.116Z,39.1
2023-04-13T15:00:00.178Z,39.1
2023-04-13T15:05:00.233Z,39.3
2023-04-13T15:10:00.184Z,38.8
2023-04-13T15:15:00.120Z,38.6
2023-04-13T15:20:00.163Z,39.4
2023-04-13T15:25:00.128Z,39.3
2023-04-13T15:30:00.349Z,39.6
2023-04-13T15:35:00.146Z,39.6
2023-04-13T15:40:00.177Z,39.9
2023-04-13T15:45:00.113Z,39.6
2023-04-13T15:50:00.220Z,40.5
2023-04-13T15:55:00.171Z,40.4
2023-04-13T16:00:00.141Z,40.1
2023-04-13T16:05:00.113Z,40.3
2023-04-13T16:10:00.229Z,41.2
2023-04-13T16:15:00.127Z,41.7
2023-04-13T16:20:00.172Z,41.7
2023-04-13T16:25:00.321Z,42.2
2023-04-13T16:30:00.159Z,42.1
2023-04-13T16:35:00.113Z,42.1
2023-04-13T16:40:00.142Z,42.1
2023-04-13T16:45:00.132Z,41.8
2023-04-13T16:50:00.269Z,40.7
2023-04-13T16:55:00.145Z,42.3
2023-04-13T17:00:00.183Z,42.1
2023-04-13T17:05:00.133Z,42.3
2023-04-13T17:10:00.175Z,42.6
2023-04-13T17:15:00.142Z,42.9
2023-04-13T17:20:00.106Z,43.4
2023-04-13T17:25:00.181Z,43.6
2023-04-13T17:30:00.198Z,44.2
2023-04-13T17:35:00.111Z,44.5
2023-04-13T17:40:00.141Z,44.6
2023-04-13T17:45:00.144Z,45.1
2023-04-13T17:50:00.150Z,45.8
2023-04-13T17:55:00.167Z,46.4
2023-04-13T18:00:00.162Z,47
2023-04-13T18:05:00.119Z,47.4
2023-04-13T18:10:00.188Z,47.8
2023-04-13T18:15:00.139Z,48.8
2023-04-13T18:20:00.129Z,49.7
2023-04-13T18:25:00.155Z,50.5
2023-04-13T18:30:00.194Z,50.9
2023-04-13T18:35:00.145Z,51.2
2023-04-13T18:40:00.169Z,51.2
2023-04-13T18:45:00.167Z,51.7
2023-04-13T18:50:00.201Z,52.3
2023-04-13T18:55:00.178Z,53.1
2023-04-13T19:00:00.129Z,54.1
2023-04-13T19:05:00.326Z,54.8
2023-04-13T19:10:00.206Z,55.3
2023-04-13T19:15:00.136Z,55.7
2023-04-13T19:20:00.174Z,56.3
2023-04-13T19:25:00.136Z,56.8
2023-04-13T19:30:00.187Z,57.8
2023-04-13T19:35:00.130Z,58.3
2023-04-13T19:40:00.196Z,58.4
2023-04-13T19:45:00.150Z,58.8
2023-04-13T19:50:00.247Z,59.3
2023-04-13T19:55:00.137Z,59.5
2023-04-13T20:00:00.242Z,60.1
2023-04-13T20:05:00.166Z,61.2
2023-04-13T20:10:00.156Z,61.6
2023-04-13T20:15:00.168Z,61.7
2023-04-13T20:20:00.176Z,61.8
2023-04-13T20:25:00.138Z,62.5
2023-04-13T20:30:00.190Z,62.5
2023-04-13T20:35:00.141Z,64.2
2023-04-13T20:40:00.135Z,64
2023-04-13T20:45:00.171Z,64
2023-04-13T20:50:00.335Z,64
2023-04-13T20:55:00.154Z,64.6
2023-04-13T21:00:00.190Z,65.3
2023-04-13T21:05:00.146Z,65.7
2023-04-13T21:10:00.233Z,66.2
2023-04-13T21:15:00.151Z,67.1
2023-04-13T21:20:00.131Z,67.6
2023-04-13T21:25:00.139Z,68
2023-04-13T21:30:00.216Z,68.3
2023-04-13T21:35:00.112Z,69.6
2023-04-13T21:40:00.132Z,70.1
2023-04-13T21:45:00.164Z,70.5
2023-04-13T21:50:00.173Z,70.9
2023-04-13T21:55:00.114Z,72.3
2023-04-13T22:00:00.156Z,72.8
2023-04-13T22:05:00.132Z,72.8
2023-04-13T22:10:00.178Z,73
2023-04-13T22:15:00.148Z,73.3
2023-04-13T22:20:00.142Z,73.9
2023-04-13T22:25:00.166Z,74
2023-04-13T22:30:00.228Z,74
2023-04-13T22:35:00.130Z,74
2023-04-13T22:40:00.155Z,74.2
2023-04-13T22:45:00.183Z,74.4
2023-04-13T22:50:00.122Z,74.7
2023-04-13T22:55:00.121Z,75.1
2023-04-13T23:00:00.164Z,75.4
2023-04-13T23:05:00.191Z,75.6
2023-04-13T23:10:00.127Z,75.6
2023-04-13T23:15:00.096Z,75.6
2023-04-13T23:20:00.129Z,75.6
2023-04-13T23:25:00.130Z,75.9
2023-04-13T23:30:00.169Z,76.3
2023-04-13T23:35:00.114Z,76.4
2023-04-13T23:40:00.140Z,76.3
2023-04-13T23:45:00.151Z,76.5
2023-04-13T23:50:00.175Z,76.7
2023-04-13T23:55:00.111Z,77.1
